createdAt,value
2023-03-12T00:02:09.126Z,-0.60
2023-03-12T00:04:57.901Z,-0.50
2023-03-12T00:07:46.629Z,-0.50
2023-03-12T00:10:36.102Z,-0.40
2023-03-12T00:13:26.233Z,-0.40
2023-03-12T00:16:16.561Z,-0.40
2023-03-12T00:19:05.287Z,-0.30
2023-03-12T00:21:53.964Z,-0.30
2023-03-12T00:24:42.649Z,-0.20
2023-03-12T00:27:31.339Z,-0.20
2023-03-12T00:30:21.748Z,-0.20
2023-03-12T00:33:10.612Z,-0.10
2023-03-12T00:36:02.292Z,-0.20
2023-03-12T00:38:51.055Z,-0.20
2023-03-12T00:41:39.718Z,-0.20
2023-03-12T00:44:28.652Z,-0.30
2023-03-12T00:47:18.737Z,-0.30
2023-03-12T00:50:08.072Z,-0.20
2023-03-12T00:52:56.818Z,-0.20
2023-03-12T00:55:45.595Z,-0.20
2023-03-12T00:58:34.374Z,-0.30
2023-03-12T01:01:23.086Z,-0.20
2023-03-12T01:04:13.730Z,-0.20
2023-03-12T01:07:02.479Z,-0.30
2023-03-12T01:09:51.211Z,-0.30
2023-03-12T01:12:39.956Z,-0.40
2023-03-12T01:15:29.334Z,-0.30
2023-03-12T01:18:18.198Z,-0.30
2023-03-12T01:21:08.589Z,-0.30
2023-03-12T01:23:57.824Z,-0.30
2023-03-12T01:26:46.505Z,-0.30
2023-03-12T01:29:35.190Z,-0.20
2023-03-12T01:32:23.967Z,-0.20
2023-03-12T01:35:12.880Z,-0.10
2023-03-12T01:38:03.122Z,-0.20
2023-03-12T01:40:51.866Z,-0.10
2023-03-12T01:43:40.744Z,-0.10
2023-03-12T01:46:33.171Z,-0.10
2023-03-12T01:49:25.435Z,-0.10
2023-03-12T01:52:16.666Z,-0.10
2023-03-12T01:55:10.597Z,-0.10
2023-03-12T01:57:59.978Z,-0.20
2023-03-12T02:00:48.824Z,-0.20
2023-03-12T02:03:38.397Z,-0.20
2023-03-12T02:06:34.086Z,-0.20
2023-03-12T02:09:23.305Z,-0.20
2023-03-12T02:12:13.726Z,-0.10
2023-03-12T02:15:02.509Z,-0.10
2023-03-12T02:17:51.229Z,-0.10
2023-03-12T02:20:47.998Z,-0.10
2023-03-12T02:23:43.335Z,-0.10
2023-03-12T02:26:34.406Z,0.00
2023-03-12T02:29:25.546Z,0.00
2023-03-12T02:32:21.510Z,0.00
2023-03-12T02:35:11.070Z,0.00
2023-03-12T02:38:01.382Z,0.00
2023-03-12T02:40:51.178Z,0.10
2023-03-12T02:43:41.960Z,0.10
2023-03-12T02:46:33.802Z,0.10
2023-03-12T02:49:24.625Z,0.10
2023-03-12T02:52:13.298Z,0.10
2023-03-12T02:55:02.001Z,0.10
2023-03-12T02:57:50.643Z,0.20
2023-03-12T03:00:40.796Z,0.20
2023-03-12T03:03:29.428Z,0.20
2023-03-12T03:06:18.540Z,0.20
2023-03-12T03:09:07.279Z,0.30
2023-03-12T03:11:55.974Z,0.30
2023-03-12T03:14:44.671Z,0.30
2023-03-12T03:17:34.741Z,0.30
2023-03-12T03:20:24.810Z,0.30
2023-03-12T03:23:13.531Z,0.30
2023-03-12T03:26:02.277Z,0.30
2023-03-12T03:28:51.403Z,0.30
2023-03-12T03:31:40.218Z,0.30
2023-03-12T03:34:30.389Z,0.30
2023-03-12T03:37:19.139Z,0.30
2023-03-12T03:40:11.837Z,0.30
2023-03-12T03:43:00.560Z,0.30
2023-03-12T03:45:49.404Z,0.30
2023-03-12T03:48:38.135Z,0.30
2023-03-12T03:51:28.460Z,0.40
2023-03-12T03:54:17.451Z,0.40
2023-03-12T03:57:06.414Z,0.30
2023-03-12T03:59:55.251Z,0.30
2023-03-12T04:02:43.957Z,0.30
2023-03-12T04:05:33.507Z,0.30
2023-03-12T04:08:23.694Z,0.30
2023-03-12T04:11:14.969Z,0.30
2023-03-12T04:14:03.853Z,0.30
2023-03-12T04:16:52.653Z,0.30
2023-03-12T04:19:41.448Z,0.30
2023-03-12T04:22:30.119Z,0.30
2023-03-12T04:25:20.473Z,0.30
2023-03-12T04:28:09.237Z,0.20
2023-03-12T04:30:59.786Z,0.20
2023-03-12T04:33:48.560Z,0.20
2023-03-12T04:36:37.555Z,0.20
2023-03-12T04:39:26.393Z,0.20
2023-03-12T04:42:16.560Z,0.20
2023-03-12T04:45:06.399Z,0.20
2023-03-12T04:47:55.076Z,0.20
2023-03-12T04:50:44.705Z,0.20
2023-03-12T04:53:33.514Z,0.20
2023-03-12T04:56:22.278Z,0.10
2023-03-12T04:59:12.367Z,0.10
2023-03-12T05:02:01.054Z,0.10
2023-03-12T05:04:49.756Z,0.00
2023-03-12T05:07:38.436Z,0.00
2023-03-12T05:10:27.430Z,0.00
2023-03-12T05:13:18.300Z,-0.10
2023-03-12T05:16:09.188Z,-0.10
2023-03-12T05:18:57.867Z,-0.20
2023-03-12T05:21:46.994Z,-0.20
2023-03-12T05:24:36.711Z,-0.20
2023-03-12T05:27:29.021Z,-0.20
2023-03-12T05:30:19.164Z,-0.30
2023-03-12T05:33:09.318Z,-0.30
2023-03-12T05:35:58.262Z,-0.30
2023-03-12T05:38:47.062Z,-0.40
2023-03-12T05:41:35.800Z,-0.40
2023-03-12T05:44:25.028Z,-0.40
2023-03-12T05:47:13.816Z,-0.40
2023-03-12T05:50:04.172Z,-0.30
2023-03-12T05:52:53.382Z,-0.30
2023-03-12T05:55:42.117Z,-0.20
2023-03-12T05:58:30.878Z,-0.20
2023-03-12T06:01:22.477Z,-0.10
2023-03-12T06:04:11.172Z,-0.10
2023-03-12T06:07:01.300Z,0.00
2023-03-12T06:09:49.990Z,-0.10
2023-03-12T06:12:38.701Z,-0.10
2023-03-12T06:15:27.484Z,-0.10
2023-03-12T06:18:16.372Z,-0.10
2023-03-12T06:21:12.922Z,-0.20
2023-03-12T06:24:03.645Z,-0.20
2023-03-12T06:26:52.327Z,-0.20
2023-03-12T06:29:41.279Z,-0.20
2023-03-12T06:32:30.262Z,-0.20
2023-03-12T06:35:19.123Z,-0.20
2023-03-12T06:38:07.869Z,-0.20
2023-03-12T06:41:00.190Z,-0.20
2023-03-12T06:43:49.663Z,-0.20
2023-03-12T06:46:38.409Z,-0.20
2023-03-12T06:49:27.515Z,-0.20
2023-03-12T06:52:16.243Z,-0.30
2023-03-12T06:55:05.491Z,-0.30
2023-03-12T06:57:55.598Z,-0.20
2023-03-12T07:00:44.318Z,-0.30
2023-03-12T07:03:33.160Z,-0.30
2023-03-12T07:06:23.425Z,-0.30
2023-03-12T07:09:12.265Z,-0.30
2023-03-12T07:12:00.973Z,-0.20
2023-03-12T07:14:51.075Z,-0.20
2023-03-12T07:17:40.013Z,-0.10
2023-03-12T07:20:28.805Z,-0.10
2023-03-12T07:23:18.074Z,0.00
2023-03-12T07:26:07.539Z,0.00
2023-03-12T07:28:56.248Z,0.10
2023-03-12T07:31:46.393Z,0.20
2023-03-12T07:34:35.356Z,0.30
2023-03-12T07:37:24.251Z,0.30
2023-03-12T07:40:13.984Z,0.40
2023-03-12T07:43:02.707Z,0.40
2023-03-12T07:45:51.722Z,0.40
2023-03-12T07:48:44.194Z,0.40
2023-03-12T07:51:33.240Z,0.40
2023-03-12T07:54:29.030Z,0.40
2023-03-12T07:57:18.187Z,0.50
2023-03-12T08:00:10.492Z,0.50
2023-03-12T08:02:59.733Z,0.50
2023-03-12T08:05:57.974Z,0.60
2023-03-12T08:08:46.962Z,0.60
2023-03-12T08:11:37.613Z,0.70
2023-03-12T08:14:26.743Z,0.70
2023-03-12T08:17:15.563Z,0.80
2023-03-12T08:20:06.056Z,0.90
2023-03-12T08:22:56.618Z,1.00
2023-03-12T08:25:47.535Z,1.00
2023-03-12T08:28:36.641Z,1.00
2023-03-12T08:31:25.450Z,1.00
2023-03-12T08:34:14.186Z,1.10
2023-03-12T08:37:03.084Z,1.10
2023-03-12T08:39:53.525Z,1.20
2023-03-12T08:42:42.869Z,1.10
2023-03-12T08:45:32.616Z,1.10
2023-03-12T08:48:21.441Z,1.20
2023-03-12T08:51:10.540Z,1.20
2023-03-12T08:53:59.354Z,1.30
2023-03-12T08:56:53.137Z,1.40
2023-03-12T08:59:42.186Z,1.40
2023-03-12T09:02:30.962Z,1.60
2023-03-12T09:05:20.718Z,1.70
2023-03-12T09:08:09.557Z,1.70
2023-03-12T09:10:58.327Z,1.80
2023-03-12T09:14:18.692Z,1.80
2023-03-12T09:16:57.319Z,1.80
2023-03-12T09:19:46.575Z,1.80
2023-03-12T09:22:37.077Z,1.90
2023-03-12T09:25:27.174Z,2.10
2023-03-12T09:28:18.813Z,2.20
2023-03-12T09:31:13.991Z,2.20
2023-03-12T09:34:08.493Z,2.20
2023-03-12T09:36:57.561Z,2.30
2023-03-12T09:39:46.316Z,2.30
2023-03-12T09:42:42.716Z,2.30
2023-03-12T09:45:35.770Z,2.40
2023-03-12T09:48:33.169Z,2.50
2023-03-12T09:51:25.534Z,2.60
2023-03-12T09:54:24.306Z,2.70
2023-03-12T09:57:17.751Z,2.80
2023-03-12T10:00:10.688Z,2.80
2023-03-12T10:03:12.161Z,2.80
2023-03-12T10:06:12.691Z,2.80
2023-03-12T10:09:28.237Z,2.90
2023-03-12T10:12:25.836Z,2.90
2023-03-12T10:15:33.459Z,2.90
2023-03-12T10:18:34.617Z,3.00
2023-03-12T10:21:32.688Z,3.00
2023-03-12T10:24:31.688Z,3.00
2023-03-12T10:27:30.988Z,3.10
2023-03-12T10:30:24.037Z,3.20
2023-03-12T10:33:17.233Z,3.40
2023-03-12T10:36:16.234Z,3.60
2023-03-12T10:39:11.706Z,3.60
2023-03-12T10:42:02.611Z,3.80
2023-03-12T10:44:55.353Z,4.00
2023-03-12T10:47:44.963Z,4.10
2023-03-12T10:50:36.561Z,4.30
2023-03-12T10:53:30.522Z,4.50
2023-03-12T10:56:22.030Z,4.60
2023-03-12T10:59:22.596Z,4.70
2023-03-12T11:02:34.344Z,4.70
2023-03-12T11:05:25.554Z,4.80
2023-03-12T11:08:23.532Z,4.80
2023-03-12T11:11:13.613Z,5.00
2023-03-12T11:14:16.925Z,5.20
2023-03-12T11:17:22.408Z,5.30
2023-03-12T11:20:26.404Z,5.40
2023-03-12T11:23:16.340Z,5.40
2023-03-12T11:26:11.465Z,5.40
2023-03-12T11:29:04.462Z,5.50
2023-03-12T11:32:04.886Z,5.70
2023-03-12T11:34:54.564Z,5.80
2023-03-12T11:37:52.893Z,5.80
2023-03-12T11:40:56.233Z,5.90
2023-03-12T11:44:04.076Z,5.90
2023-03-12T11:47:05.162Z,5.80
2023-03-12T11:50:11.909Z,5.90
2023-03-12T11:53:15.381Z,6.10
2023-03-12T11:56:18.501Z,6.10
2023-03-12T11:59:32.502Z,6.10
2023-03-12T12:02:51.704Z,6.10
2023-03-12T12:05:50.807Z,6.30
2023-03-12T12:08:59.400Z,6.40
2023-03-12T12:12:01.010Z,6.50
2023-03-12T12:15:05.342Z,6.50
2023-03-12T12:18:03.656Z,6.60
2023-03-12T12:21:00.409Z,6.80
2023-03-12T12:24:00.254Z,6.80
2023-03-12T12:26:56.763Z,6.90
2023-03-12T12:30:07.684Z,7.00
2023-03-12T12:33:29.865Z,7.00
2023-03-12T12:36:44.554Z,7.10
2023-03-12T12:39:44.593Z,7.10
2023-03-12T12:46:22.666Z,7.30
2023-03-12T13:02:34.128Z,8.10
2023-03-12T13:05:27.388Z,8.10
2023-03-12T13:08:51.679Z,8.20
2023-03-12T13:11:44.340Z,8.20
2023-03-12T13:14:42.217Z,8.20
2023-03-12T13:45:24.338Z,8.80
2023-03-12T13:48:17.493Z,8.80
2023-03-12T13:51:17.617Z,8.70
2023-03-12T13:54:06.701Z,8.60
2023-03-12T13:57:01.697Z,8.60
2023-03-12T14:00:00.787Z,8.70
2023-03-12T14:02:55.853Z,8.60
2023-03-12T14:05:53.526Z,8.70
2023-03-12T14:08:57.940Z,8.90
2023-03-12T14:11:56.295Z,9.00
2023-03-12T14:15:13.494Z,9.00
2023-03-12T14:18:13.091Z,9.00
2023-03-12T14:21:03.873Z,9.00
2023-03-12T14:23:57.034Z,9.10
2023-03-12T14:26:47.773Z,9.10
2023-03-12T14:29:39.570Z,9.20
2023-03-12T14:32:32.807Z,9.20
2023-03-12T14:35:25.966Z,9.20
2023-03-12T14:38:19.093Z,9.20
2023-03-12T14:41:14.712Z,9.20
2023-03-12T14:44:18.896Z,9.20
2023-03-12T14:47:10.453Z,9.20
2023-03-12T14:49:59.616Z,9.30
2023-03-12T14:52:49.920Z,9.50
2023-03-12T14:55:38.749Z,9.40
2023-03-12T14:58:27.842Z,9.30
2023-03-12T15:01:21.576Z,9.30
2023-03-12T15:04:17.830Z,9.40
2023-03-12T15:07:10.874Z,9.40
2023-03-12T15:10:01.555Z,9.40
2023-03-12T15:12:51.447Z,9.40
2023-03-12T15:15:42.838Z,9.40
2023-03-12T15:18:34.119Z,9.40
2023-03-12T15:21:23.122Z,9.30
2023-03-12T15:24:14.484Z,9.30
2023-03-12T15:27:32.209Z,9.30
2023-03-12T15:30:26.014Z,9.30
2023-03-12T15:33:25.738Z,9.40
2023-03-12T15:36:28.043Z,9.40
2023-03-12T15:39:26.505Z,9.40
2023-03-12T15:42:19.651Z,9.40
2023-03-12T15:45:20.059Z,9.40
2023-03-12T15:48:19.743Z,9.40
2023-03-12T15:51:14.919Z,9.30
2023-03-12T15:54:06.241Z,9.30
2023-03-12T15:56:55.602Z,9.30
2023-03-12T15:59:44.262Z,9.30
2023-03-12T16:02:39.023Z,9.30
2023-03-12T16:05:31.509Z,9.30
2023-03-12T16:08:22.773Z,9.20
2023-03-12T16:11:17.746Z,9.20
2023-03-12T16:14:13.609Z,9.20
2023-03-12T16:17:02.337Z,9.20
2023-03-12T16:19:52.412Z,9.20
2023-03-12T16:22:41.678Z,9.20
2023-03-12T16:25:30.424Z,9.20
2023-03-12T16:28:22.473Z,9.20
2023-03-12T16:31:14.699Z,9.10
2023-03-12T16:34:03.425Z,9.10
2023-03-12T16:36:53.955Z,9.00
2023-03-12T16:39:46.312Z,9.00
2023-03-12T16:42:35.311Z,8.90
2023-03-12T16:45:24.461Z,8.90
2023-03-12T16:48:16.221Z,8.90
2023-03-12T16:51:06.330Z,8.80
2023-03-12T16:54:08.913Z,8.80
2023-03-12T16:56:59.217Z,8.80
2023-03-12T16:59:47.980Z,8.80
2023-03-12T17:02:37.393Z,8.80
2023-03-12T17:05:26.414Z,8.80
2023-03-12T17:08:16.082Z,8.70
2023-03-12T17:11:16.359Z,8.70
2023-03-12T17:14:11.541Z,8.70
2023-03-12T17:17:00.810Z,8.70
2023-03-12T17:19:49.616Z,8.60
2023-03-12T17:22:38.424Z,8.60
2023-03-12T17:25:29.647Z,8.60
2023-03-12T17:28:19.777Z,8.60
2023-03-12T17:31:08.537Z,8.50
2023-03-12T17:33:57.378Z,8.60
2023-03-12T17:36:46.059Z,8.60
2023-03-12T17:39:35.716Z,8.50
2023-03-12T17:42:24.422Z,8.50
2023-03-12T17:45:14.569Z,8.50
2023-03-12T17:48:03.340Z,8.40
2023-03-12T17:50:52.007Z,8.40
2023-03-12T17:53:42.097Z,8.40
2023-03-12T17:56:30.878Z,8.40
2023-03-12T17:59:19.552Z,8.40
2023-03-12T18:02:11.897Z,8.40
2023-03-12T18:05:00.707Z,8.40
2023-03-12T18:07:50.604Z,8.40
2023-03-12T18:10:40.684Z,8.30
2023-03-12T18:13:29.354Z,8.30
2023-03-12T18:16:18.469Z,8.30
2023-03-12T18:19:08.603Z,8.30
2023-03-12T18:21:57.319Z,8.40
2023-03-12T18:24:46.028Z,8.40
2023-03-12T18:27:34.753Z,8.30
2023-03-12T18:30:23.497Z,8.30
2023-03-12T18:33:12.166Z,8.30
2023-03-12T18:36:02.393Z,8.30
2023-03-12T18:38:51.121Z,8.30
2023-03-12T18:41:41.930Z,8.30
2023-03-12T18:44:30.917Z,8.20
2023-03-12T18:47:19.754Z,8.20
2023-03-12T18:50:09.422Z,8.20
2023-03-12T18:53:00.665Z,8.20
2023-03-12T18:55:53.738Z,8.20
2023-03-12T18:58:42.411Z,8.20
2023-03-12T19:01:31.141Z,8.10
2023-03-12T19:04:20.816Z,8.10
2023-03-12T19:07:10.774Z,8.10
2023-03-12T19:10:00.946Z,8.00
2023-03-12T19:12:53.087Z,8.00
2023-03-12T19:15:42.532Z,8.00
2023-03-12T19:18:31.234Z,8.00
2023-03-12T19:21:19.918Z,7.90
2023-03-12T19:24:08.706Z,8.00
2023-03-12T19:26:58.817Z,7.90
2023-03-12T19:29:47.526Z,7.90
2023-03-12T19:32:43.331Z,7.90
2023-03-12T19:35:33.148Z,7.90
2023-03-12T19:38:22.021Z,7.80
2023-03-12T19:41:11.011Z,7.80
2023-03-12T19:44:01.087Z,7.80
2023-03-12T19:46:49.842Z,7.90
2023-03-12T19:49:38.813Z,7.90
2023-03-12T19:52:27.486Z,8.00
2023-03-12T19:55:16.614Z,8.10
2023-03-12T19:58:05.382Z,8.10
2023-03-12T20:00:55.998Z,8.00
2023-03-12T20:03:45.395Z,8.10
2023-03-12T20:06:34.146Z,8.00
2023-03-12T20:09:22.785Z,8.00
2023-03-12T20:12:11.458Z,8.00
2023-03-12T20:15:00.180Z,7.90
2023-03-12T20:17:50.305Z,7.90
2023-03-12T20:20:39.024Z,7.90
2023-03-12T20:23:27.722Z,8.00
2023-03-12T20:26:16.436Z,8.00
2023-03-12T20:29:05.121Z,8.00
2023-03-12T20:31:54.118Z,8.10
2023-03-12T20:34:44.218Z,8.10
2023-03-12T20:37:32.912Z,8.20
2023-03-12T20:40:21.600Z,8.10
2023-03-12T20:43:10.240Z,8.10
2023-03-12T20:45:59.002Z,8.10
2023-03-12T20:48:47.722Z,8.10
2023-03-12T20:51:37.811Z,8.10
2023-03-12T20:54:27.431Z,8.00
2023-03-12T20:57:16.118Z,8.00
2023-03-12T21:00:05.653Z,8.00
2023-03-12T21:02:54.371Z,8.00
2023-03-12T21:05:43.292Z,7.80
2023-03-12T21:08:34.490Z,7.80
2023-03-12T21:11:23.347Z,7.80
2023-03-12T21:14:12.021Z,7.70
2023-03-12T21:17:00.836Z,7.50
2023-03-12T21:19:49.550Z,7.50
2023-03-12T21:22:38.860Z,7.40
2023-03-12T21:25:29.719Z,7.40
2023-03-12T21:28:18.386Z,7.50
2023-03-12T21:31:08.253Z,7.60
2023-03-12T21:33:57.280Z,7.60
2023-03-12T21:36:46.486Z,7.50
2023-03-12T21:39:36.066Z,7.60
2023-03-12T21:42:26.217Z,7.60
2023-03-12T21:45:14.876Z,7.50
2023-03-12T21:48:03.631Z,7.50
2023-03-12T21:50:52.333Z,7.40
2023-03-12T21:53:41.268Z,7.40
2023-03-12T21:56:30.432Z,7.40
2023-03-12T21:59:20.537Z,7.30
2023-03-12T22:02:12.018Z,7.30
2023-03-12T22:05:01.379Z,7.20
2023-03-12T22:07:50.088Z,7.30
2023-03-12T22:10:38.738Z,7.30
2023-03-12T22:13:27.449Z,7.30
2023-03-12T22:16:18.043Z,7.40
2023-03-12T22:19:07.517Z,7.40
2023-03-12T22:21:56.236Z,7.40
2023-03-12T22:24:44.887Z,7.40
2023-03-12T22:27:33.671Z,7.40
2023-03-12T22:30:22.635Z,7.40
2023-03-12T22:33:13.320Z,7.40
2023-03-12T22:36:05.213Z,7.40
2023-03-12T22:38:54.253Z,7.40
2023-03-12T22:41:42.893Z,7.40
2023-03-12T22:44:31.657Z,7.50
2023-03-12T22:47:20.330Z,7.50
2023-03-12T22:50:12.295Z,7.50
2023-03-12T22:53:01.427Z,7.50
2023-03-12T22:55:58.194Z,7.50
2023-03-12T22:58:46.972Z,7.50
2023-03-12T23:01:35.752Z,7.70
2023-03-12T23:04:24.557Z,7.70
2023-03-12T23:07:17.463Z,7.70
2023-03-12T23:10:07.562Z,7.60
2023-03-12T23:12:56.345Z,7.70
2023-03-12T23:15:44.979Z,7.90
2023-03-12T23:18:34.560Z,7.90
2023-03-12T23:21:24.589Z,7.90
2023-03-12T23:24:14.739Z,7.90
2023-03-12T23:27:03.565Z,8.00
2023-03-12T23:29:52.494Z,8.00
2023-03-12T23:32:41.268Z,8.00
2023-03-12T23:35:31.150Z,8.00
2023-03-12T23:38:20.131Z,8.00
2023-03-12T23:41:13.512Z,8.00
2023-03-12T23:44:02.578Z,8.10
2023-03-12T23:46:51.315Z,8.10
2023-03-12T23:49:40.004Z,8.10
2023-03-12T23:52:28.706Z,8.20
2023-03-12T23:55:17.574Z,8.20
2023-03-12T23:58:07.719Z,8.20
